sensor_id;sensor_type;location;lat;lon;timestamp;pressure;altitude;pressure_sealevel;temperature;humidity
33422;BME280;19763;55.798;37.782;2022-10-15T00:01:41;100319.50;;;9.17;67.56
33422;BME280;19763;55.798;37.782;2022-10-15T00:04:07;100316.88;;;9.21;68.39
33422;BME280;19763;55.798;37.782;2022-10-15T00:06:33;100308.25;;;9.24;67.54
33422;BME280;19763;55.798;37.782;2022-10-15T00:08:59;100329.78;;;9.26;67.70
33422;BME280;19763;55.798;37.782;2022-10-15T00:11:26;100329.81;;;9.21;68.49
33422;BME280;19763;55.798;37.782;2022-10-15T00:13:54;100313.47;;;9.13;68.50
33422;BME280;19763;55.798;37.782;2022-10-15T00:16:22;100332.41;;;9.17;69.40
33422;BME280;19763;55.798;37.782;2022-10-15T00:18:48;100329.84;;;9.17;69.25
33422;BME280;19763;55.798;37.782;2022-10-15T00:21:16;100332.44;;;9.09;69.67
33422;BME280;19763;55.798;37.782;2022-10-15T00:23:43;100325.56;;;9.05;70.62
33422;BME280;19763;55.798;37.782;2022-10-15T00:26:11;100333.31;;;9.09;68.98
33422;BME280;19763;55.798;37.782;2022-10-15T00:28:37;100327.22;;;9.13;68.22
33422;BME280;19763;55.798;37.782;2022-10-15T00:31:06;100311.81;;;9.01;69.29
33422;BME280;19763;55.798;37.782;2022-10-15T00:33:32;100332.41;;;9.13;69.18
33422;BME280;19763;55.798;37.782;2022-10-15T00:36:04;100308.44;;;8.90;68.24
33422;BME280;19763;55.798;37.782;2022-10-15T00:38:30;100329.03;;;8.99;67.93
33422;BME280;19763;55.798;37.782;2022-10-15T00:40:56;100323.88;;;9.02;67.91
33422;BME280;19763;55.798;37.782;2022-10-15T00:43:46;100315.22;;;9.09;68.55
33422;BME280;19763;55.798;37.782;2022-10-15T00:46:23;100336.78;;;9.05;68.18
33422;BME280;19763;55.798;37.782;2022-10-15T00:49:02;100317.00;;;8.98;67.43
33422;BME280;19763;55.798;37.782;2022-10-15T00:51:37;100307.53;;;8.94;67.61
33422;BME280;19763;55.798;37.782;2022-10-15T00:54:04;100325.53;;;9.12;67.78
33422;BME280;19763;55.798;37.782;2022-10-15T00:56:30;100313.53;;;9.02;67.59
33422;BME280;19763;55.798;37.782;2022-10-15T00:58:57;100320.41;;;9.03;67.92
33422;BME280;19763;55.798;37.782;2022-10-15T01:01:23;100322.97;;;9.06;67.74
33422;BME280;19763;55.798;37.782;2022-10-15T01:03:53;100332.47;;;9.04;68.23
33422;BME280;19763;55.798;37.782;2022-10-15T01:06:20;100335.91;;;9.03;67.90
33422;BME280;19763;55.798;37.782;2022-10-15T01:08:45;100333.31;;;9.09;67.58
33422;BME280;19763;55.798;37.782;2022-10-15T01:22:40;100328.16;;;9.09;67.33
33422;BME280;19763;55.798;37.782;2022-10-15T01:27:45;100337.63;;;9.07;68.09
33422;BME280;19763;55.798;37.782;2022-10-15T01:30:24;100321.31;;;8.91;67.89
33422;BME280;19763;55.798;37.782;2022-10-15T01:35:36;100335.91;;;9.05;68.10
33422;BME280;19763;55.798;37.782;2022-10-15T01:40:49;100329.06;;;8.93;66.81
33422;BME280;19763;55.798;37.782;2022-10-15T01:43:21;100328.22;;;8.92;67.42
33422;BME280;19763;55.798;37.782;2022-10-15T01:45:52;100329.94;;;8.87;67.10
33422;BME280;19763;55.798;37.782;2022-10-15T01:48:21;100340.28;;;8.89;66.59
33422;BME280;19763;55.798;37.782;2022-10-15T01:50:52;100338.53;;;8.97;67.83
33422;BME280;19763;55.798;37.782;2022-10-15T01:53:22;100348.84;;;8.98;67.49
33422;BME280;19763;55.798;37.782;2022-10-15T01:55:55;100334.25;;;8.91;66.66
33422;BME280;19763;55.798;37.782;2022-10-15T01:58:23;100335.09;;;8.89;67.72
33422;BME280;19763;55.798;37.782;2022-10-15T02:00:51;100336.81;;;8.91;66.72
33422;BME280;19763;55.798;37.782;2022-10-15T02:03:18;100342.81;;;9.01;66.90
33422;BME280;19763;55.798;37.782;2022-10-15T02:05:49;100354.84;;;9.08;67.87
33422;BME280;19763;55.798;37.782;2022-10-15T02:08:38;100351.38;;;9.14;67.18
33422;BME280;19763;55.798;37.782;2022-10-15T02:11:14;100330.81;;;8.92;66.99
33422;BME280;19763;55.798;37.782;2022-10-15T02:26:39;100355.75;;;8.98;67.49
33422;BME280;19763;55.798;37.782;2022-10-15T02:29:09;100354.91;;;8.93;68.26
33422;BME280;19763;55.798;37.782;2022-10-15T02:31:38;100348.03;;;8.86;67.36
33422;BME280;19763;55.798;37.782;2022-10-15T02:34:08;100354.03;;;8.95;68.13
33422;BME280;19763;55.798;37.782;2022-10-15T02:36:38;100359.19;;;8.95;68.41
33422;BME280;19763;55.798;37.782;2022-10-15T02:39:06;100360.91;;;8.92;68.27
33422;BME280;19763;55.798;37.782;2022-10-15T02:41:35;100358.34;;;8.98;67.76
33422;BME280;19763;55.798;37.782;2022-10-15T02:44:04;100357.50;;;8.91;67.07
33422;BME280;19763;55.798;37.782;2022-10-15T02:46:30;100364.34;;;9.00;67.86
33422;BME280;19763;55.798;37.782;2022-10-15T02:48:56;100361.78;;;8.97;68.09
33422;BME280;19763;55.798;37.782;2022-10-15T02:51:21;100359.16;;;9.02;66.96
33422;BME280;19763;55.798;37.782;2022-10-15T02:53:47;100367.78;;;9.04;67.64
33422;BME280;19763;55.798;37.782;2022-10-15T02:56:13;100368.66;;;9.01;68.23
33422;BME280;19763;55.798;37.782;2022-10-15T02:58:38;100366.91;;;9.03;67.05
33422;BME280;19763;55.798;37.782;2022-10-15T03:01:04;100365.19;;;9.05;67.46
33422;BME280;19763;55.798;37.782;2022-10-15T03:03:30;100371.19;;;9.09;67.16
33422;BME280;19763;55.798;37.782;2022-10-15T03:05:55;100371.22;;;9.03;67.79
33422;BME280;19763;55.798;37.782;2022-10-15T03:08:21;100369.50;;;9.08;67.03
33422;BME280;19763;55.798;37.782;2022-10-15T03:10:46;100367.78;;;9.04;67.69
33422;BME280;19763;55.798;37.782;2022-10-15T03:13:12;100373.81;;;9.01;66.95
33422;BME280;19763;55.798;37.782;2022-10-15T03:15:39;100376.38;;;9.06;67.54
33422;BME280;19763;55.798;37.782;2022-10-15T03:18:05;100374.72;;;8.92;68.14
33422;BME280;19763;55.798;37.782;2022-10-15T03:20:30;100372.97;;;8.97;66.55
33422;BME280;19763;55.798;37.782;2022-10-15T03:22:56;100375.53;;;8.99;67.45
33422;BME280;19763;55.798;37.782;2022-10-15T03:25:22;100376.41;;;9.00;67.35
33422;BME280;19763;55.798;37.782;2022-10-15T03:27:47;100387.63;;;8.94;67.49
33422;BME280;19763;55.798;37.782;2022-10-15T03:30:13;100377.28;;;8.88;67.11
33422;BME280;19763;55.798;37.782;2022-10-15T03:32:39;100380.75;;;8.90;66.44
33422;BME280;19763;55.798;37.782;2022-10-15T03:35:05;100385.91;;;8.90;65.86
33422;BME280;19763;55.798;37.782;2022-10-15T03:37:30;100394.56;;;8.79;65.98
33422;BME280;19763;55.798;37.782;2022-10-15T03:39:56;100366.13;;;8.76;66.15
33422;BME280;19763;55.798;37.782;2022-10-15T03:42:22;100380.75;;;8.88;65.58
33422;BME280;19763;55.798;37.782;2022-10-15T03:44:47;100379.91;;;8.83;65.79
33422;BME280;19763;55.798;37.782;2022-10-15T03:47:13;100380.78;;;8.84;65.97
33422;BME280;19763;55.798;37.782;2022-10-15T03:49:39;100379.88;;;8.85;65.27
33422;BME280;19763;55.798;37.782;2022-10-15T03:52:04;100383.34;;;8.77;66.62
33422;BME280;19763;55.798;37.782;2022-10-15T03:54:30;100370.47;;;8.74;66.36
33422;BME280;19763;55.798;37.782;2022-10-15T03:56:56;100377.31;;;8.91;66.81
33422;BME280;19763;55.798;37.782;2022-10-15T03:59:21;100380.72;;;8.93;66.44
33422;BME280;19763;55.798;37.782;2022-10-15T04:01:47;100385.03;;;8.88;66.64
33422;BME280;19763;55.798;37.782;2022-10-15T04:04:12;100388.50;;;8.91;66.47
33422;BME280;19763;55.798;37.782;2022-10-15T04:06:38;100385.91;;;8.90;65.59
33422;BME280;19763;55.798;37.782;2022-10-15T04:09:04;100394.50;;;8.92;66.22
33422;BME280;19763;55.798;37.782;2022-10-15T04:11:30;100396.22;;;8.96;65.56
33422;BME280;19763;55.798;37.782;2022-10-15T04:13:56;100387.63;;;8.95;66.52
33422;BME280;19763;55.798;37.782;2022-10-15T04:16:22;100397.97;;;8.92;65.41
33422;BME280;19763;55.798;37.782;2022-10-15T04:18:47;100392.75;;;9.00;65.38
33422;BME280;19763;55.798;37.782;2022-10-15T04:21:13;100387.63;;;8.94;65.04
33422;BME280;19763;55.798;37.782;2022-10-15T04:23:39;100394.50;;;9.01;66.29
33422;BME280;19763;55.798;37.782;2022-10-15T04:26:05;100400.50;;;9.00;65.67
33422;BME280;19763;55.798;37.782;2022-10-15T04:28:31;100391.91;;;8.98;65.89
33422;BME280;19763;55.798;37.782;2022-10-15T04:30:58;100391.06;;;9.02;66.04
33422;BME280;19763;55.798;37.782;2022-10-15T04:33:24;100387.59;;;9.02;65.62
33422;BME280;19763;55.798;37.782;2022-10-15T04:36:06;100392.72;;;9.06;65.63
33422;BME280;19763;55.798;37.782;2022-10-15T04:38:32;100393.63;;;9.02;65.54
33422;BME280;19763;55.798;37.782;2022-10-15T04:41:06;100379.00;;;8.98;65.17
33422;BME280;19763;55.798;37.782;2022-10-15T04:43:32;100407.38;;;9.09;65.30
33422;BME280;19763;55.798;37.782;2022-10-15T04:45:59;100395.34;;;9.08;65.75
33422;BME280;19763;55.798;37.782;2022-10-15T04:48:29;100403.09;;;9.09;66.14
33422;BME280;19763;55.798;37.782;2022-10-15T04:51:12;100389.34;;;8.98;66.33
33422;BME280;19763;55.798;37.782;2022-10-15T04:53:37;100405.69;;;9.00;65.38
33422;BME280;19763;55.798;37.782;2022-10-15T04:56:05;100411.72;;;9.04;66.11
33422;BME280;19763;55.798;37.782;2022-10-15T04:58:32;100412.56;;;9.03;65.13
33422;BME280;19763;55.798;37.782;2022-10-15T05:01:06;100400.56;;;8.85;65.05
33422;BME280;19763;55.798;37.782;2022-10-15T05:03:33;100387.66;;;8.91;64.53
33422;BME280;19763;55.798;37.782;2022-10-15T05:06:04;100397.94;;;8.98;64.32
33422;BME280;19763;55.798;37.782;2022-10-15T05:08:32;100409.97;;;9.07;64.41
33422;BME280;19763;55.798;37.782;2022-10-15T05:11:05;100416.81;;;9.14;65.16
33422;BME280;19763;55.798;37.782;2022-10-15T05:13:32;100415.97;;;9.14;64.71
33422;BME280;19763;55.798;37.782;2022-10-15T05:18:40;100423.69;;;9.19;63.78
33422;BME280;19763;55.798;37.782;2022-10-15T05:21:07;100419.38;;;9.18;64.06
33422;BME280;19763;55.798;37.782;2022-10-15T05:23:33;100417.69;;;9.13;64.63
33422;BME280;19763;55.798;37.782;2022-10-15T05:26:04;100424.59;;;9.10;64.60
33422;BME280;19763;55.798;37.782;2022-10-15T05:28:30;100416.88;;;9.07;65.55
33422;BME280;19763;55.798;37.782;2022-10-15T05:31:03;100417.69;;;9.09;64.94
33422;BME280;19763;55.798;37.782;2022-10-15T05:33:28;100420.28;;;9.15;64.85
33422;BME280;19763;55.798;37.782;2022-10-15T05:35:54;100415.13;;;9.10;64.70
33422;BME280;19763;55.798;37.782;2022-10-15T05:38:19;100427.13;;;9.24;64.06
33422;BME280;19763;55.798;37.782;2022-10-15T05:40:48;100424.56;;;9.21;63.63
33422;BME280;19763;55.798;37.782;2022-10-15T05:43:14;100429.72;;;9.24;63.40
33422;BME280;19763;55.798;37.782;2022-10-15T05:45:40;100430.59;;;9.21;63.70
33422;BME280;19763;55.798;37.782;2022-10-15T05:48:06;100432.31;;;9.18;63.59
33422;BME280;19763;55.798;37.782;2022-10-15T05:50:32;100429.75;;;9.10;64.01
33422;BME280;19763;55.798;37.782;2022-10-15T05:52:57;100434.91;;;9.18;63.60
33422;BME280;19763;55.798;37.782;2022-10-15T05:55:23;100432.34;;;9.08;63.84
33422;BME280;19763;55.798;37.782;2022-10-15T05:57:49;100439.22;;;9.15;62.39
33422;BME280;19763;55.798;37.782;2022-10-15T06:00:14;100440.94;;;9.20;62.70
33422;BME280;19763;55.798;37.782;2022-10-15T06:02:40;100441.78;;;9.22;63.34
33422;BME280;19763;55.798;37.782;2022-10-15T06:05:06;100434.91;;;9.21;63.46
33422;BME280;19763;55.798;37.782;2022-10-15T06:07:32;100441.75;;;9.31;63.71
33422;BME280;19763;55.798;37.782;2022-10-15T06:09:57;100439.16;;;9.32;63.56
33422;BME280;19763;55.798;37.782;2022-10-15T06:12:23;100434.00;;;9.31;62.54
33422;BME280;19763;55.798;37.782;2022-10-15T06:14:49;100439.16;;;9.36;63.15
33422;BME280;19763;55.798;37.782;2022-10-15T06:17:14;100448.59;;;9.43;62.40
33422;BME280;19763;55.798;37.782;2022-10-15T06:19:40;100445.97;;;9.47;63.34
33422;BME280;19763;55.798;37.782;2022-10-15T06:22:06;100448.56;;;9.46;62.91
33422;BME280;19763;55.798;37.782;2022-10-15T06:24:31;100451.22;;;9.38;62.75
33422;BME280;19763;55.798;37.782;2022-10-15T06:26:57;100430.56;;;9.32;62.30
33422;BME280;19763;55.798;37.782;2022-10-15T06:29:24;100444.28;;;9.43;62.51
33422;BME280;19763;55.798;37.782;2022-10-15T06:31:50;100449.53;;;9.28;61.97
33422;BME280;19763;55.798;37.782;2022-10-15T06:34:15;100446.00;;;9.43;62.23
33422;BME280;19763;55.798;37.782;2022-10-15T06:36:41;100439.06;;;9.53;62.14
33422;BME280;19763;55.798;37.782;2022-10-15T06:39:06;100451.09;;;9.61;62.11
33422;BME280;19763;55.798;37.782;2022-10-15T06:41:32;100409.03;;;9.27;60.04
33422;BME280;19763;55.798;37.782;2022-10-15T06:43:58;100443.41;;;9.52;61.20
33422;BME280;19763;55.798;37.782;2022-10-15T06:46:23;100449.38;;;9.60;61.02
33422;BME280;19763;55.798;37.782;2022-10-15T06:48:49;100452.78;;;9.67;61.32
33422;BME280;19763;55.798;37.782;2022-10-15T06:51:16;100457.94;;;9.72;61.02
33422;BME280;19763;55.798;37.782;2022-10-15T06:53:42;100460.50;;;9.78;60.91
33422;BME280;19763;55.798;37.782;2022-10-15T06:56:08;100458.75;;;9.78;60.19
33422;BME280;19763;55.798;37.782;2022-10-15T06:58:34;100457.09;;;9.68;60.89
33422;BME280;19763;55.798;37.782;2022-10-15T07:01:01;100452.78;;;9.67;61.59
33422;BME280;19763;55.798;37.782;2022-10-15T07:03:27;100450.16;;;9.78;61.56
33422;BME280;19763;55.798;37.782;2022-10-15T07:05:53;100462.19;;;9.80;61.39
33422;BME280;19763;55.798;37.782;2022-10-15T07:08:19;100457.88;;;9.82;60.77
33422;BME280;19763;55.798;37.782;2022-10-15T07:10:45;100459.59;;;9.87;61.41
33422;BME280;19763;55.798;37.782;2022-10-15T07:13:11;100463.00;;;9.89;62.24
33422;BME280;19763;55.798;37.782;2022-10-15T07:15:37;100475.88;;;10.01;61.84
33422;BME280;19763;55.798;37.782;2022-10-15T07:18:02;100461.25;;;9.95;61.76
33422;BME280;19763;55.798;37.782;2022-10-15T07:20:29;100475.03;;;10.00;61.43
33422;BME280;19763;55.798;37.782;2022-10-15T07:22:56;100472.47;;;9.94;62.25
33422;BME280;19763;55.798;37.782;2022-10-15T07:25:23;100469.84;;;9.99;62.15
33422;BME280;19763;55.798;37.782;2022-10-15T07:27:49;100469.78;;;10.08;61.17
33422;BME280;19763;55.798;37.782;2022-10-15T07:30:15;100474.06;;;10.14;60.54
33422;BME280;19763;55.798;37.782;2022-10-15T07:32:41;100478.38;;;10.16;60.15
33422;BME280;19763;55.798;37.782;2022-10-15T07:35:07;100480.91;;;10.23;60.33
33422;BME280;19763;55.798;37.782;2022-10-15T07:37:33;100481.75;;;10.28;60.37
33422;BME280;19763;55.798;37.782;2022-10-15T07:40:00;100485.16;;;10.30;59.98
33422;BME280;19763;55.798;37.782;2022-10-15T07:42:26;100468.88;;;10.17;59.28
33422;BME280;19763;55.798;37.782;2022-10-15T07:44:51;100492.91;;;10.36;60.02
33422;BME280;19763;55.798;37.782;2022-10-15T07:47:17;100482.66;;;10.22;58.84
33422;BME280;19763;55.798;37.782;2022-10-15T07:49:43;100486.03;;;10.36;59.12
33422;BME280;19763;55.798;37.782;2022-10-15T07:52:10;100466.28;;;10.17;58.59
33422;BME280;19763;55.798;37.782;2022-10-15T07:54:35;100492.06;;;10.31;58.85
33422;BME280;19763;55.798;37.782;2022-10-15T07:57:01;100490.31;;;10.41;59.52
33422;BME280;19763;55.798;37.782;2022-10-15T07:59:27;100491.13;;;10.44;59.20
33422;BME280;19763;55.798;37.782;2022-10-15T08:01:53;100495.50;;;10.39;58.95
33422;BME280;19763;55.798;37.782;2022-10-15T08:04:18;100486.06;;;10.26;58.15
33422;BME280;19763;55.798;37.782;2022-10-15T08:06:45;100493.78;;;10.36;58.58
33422;BME280;19763;55.798;37.782;2022-10-15T08:09:11;100493.72;;;10.43;58.07
33422;BME280;19763;55.798;37.782;2022-10-15T08:11:37;100497.16;;;10.49;58.65
33422;BME280;19763;55.798;37.782;2022-10-15T08:14:03;100489.34;;;10.52;59.80
33422;BME280;19763;55.798;37.782;2022-10-15T08:16:28;100489.34;;;10.52;58.76
33422;BME280;19763;55.798;37.782;2022-10-15T08:18:54;100496.25;;;10.55;58.50
33422;BME280;19763;55.798;37.782;2022-10-15T08:21:20;100486.81;;;10.48;58.05
33422;BME280;19763;55.798;37.782;2022-10-15T08:23:46;100498.84;;;10.53;57.61
33422;BME280;19763;55.798;37.782;2022-10-15T08:26:12;100498.75;;;10.61;57.91
33422;BME280;19763;55.798;37.782;2022-10-15T08:28:37;100493.56;;;10.63;57.66
33422;BME280;19763;55.798;37.782;2022-10-15T08:31:04;100492.66;;;10.68;57.32
33422;BME280;19763;55.798;37.782;2022-10-15T08:33:30;100498.69;;;10.72;57.48
33422;BME280;19763;55.798;37.782;2022-10-15T08:35:56;100498.69;;;10.72;58.73
33422;BME280;19763;55.798;37.782;2022-10-15T08:38:22;100499.53;;;10.73;57.68
33422;BME280;19763;55.798;37.782;2022-10-15T08:40:50;100497.81;;;10.73;56.99
33422;BME280;19763;55.798;37.782;2022-10-15T08:43:23;100513.34;;;10.76;57.09
33422;BME280;19763;55.798;37.782;2022-10-15T08:45:54;100506.44;;;10.75;57.16
33422;BME280;19763;55.798;37.782;2022-10-15T08:48:33;100497.81;;;10.71;57.25
33422;BME280;19763;55.798;37.782;2022-10-15T08:51:05;100516.75;;;10.80;57.00
33422;BME280;19763;55.798;37.782;2022-10-15T08:53:38;100494.50;;;10.54;56.80
33422;BME280;19763;55.798;37.782;2022-10-15T08:56:11;100510.91;;;10.58;56.48
33422;BME280;19763;55.798;37.782;2022-10-15T08:59:01;100512.56;;;10.65;56.92
33422;BME280;19763;55.798;37.782;2022-10-15T09:04:21;100504.72;;;10.71;57.27
33422;BME280;19763;55.798;37.782;2022-10-15T09:06:52;100496.97;;;10.71;57.38
33422;BME280;19763;55.798;37.782;2022-10-15T09:09:47;100515.09;;;10.71;56.51
33422;BME280;19763;55.798;37.782;2022-10-15T09:15:11;100498.66;;;10.74;58.09
33422;BME280;19763;55.798;37.782;2022-10-15T09:17:38;100510.78;;;10.73;57.64
33422;BME280;19763;55.798;37.782;2022-10-15T09:20:33;100496.13;;;10.64;57.71
33422;BME280;19763;55.798;37.782;2022-10-15T09:22:58;100515.03;;;10.77;57.69
33422;BME280;19763;55.798;37.782;2022-10-15T09:25:24;100509.03;;;10.75;57.68
33422;BME280;19763;55.798;37.782;2022-10-15T09:27:54;100504.66;;;10.82;57.81
33422;BME280;19763;55.798;37.782;2022-10-15T09:30:38;100503.72;;;10.84;57.24
33422;BME280;19763;55.798;37.782;2022-10-15T09:33:29;100510.66;;;10.85;57.86
33422;BME280;19763;55.798;37.782;2022-10-15T09:43:48;100510.50;;;11.01;56.97
33422;BME280;19763;55.798;37.782;2022-10-15T09:46:14;100514.09;;;10.84;55.85
33422;BME280;19763;55.798;37.782;2022-10-15T09:49:05;100510.75;;;10.71;56.42
33422;BME280;19763;55.798;37.782;2022-10-15T09:51:41;100502.94;;;10.78;56.27
33422;BME280;19763;55.798;37.782;2022-10-15T09:54:15;100506.34;;;10.83;56.01
33422;BME280;19763;55.798;37.782;2022-10-15T09:56:50;100511.50;;;10.89;55.87
33422;BME280;19763;55.798;37.782;2022-10-15T09:59:19;100510.59;;;10.93;55.52
33422;BME280;19763;55.798;37.782;2022-10-15T10:02:00;100509.63;;;11.02;55.92
33422;BME280;19763;55.798;37.782;2022-10-15T10:04:29;100502.78;;;10.95;55.78
33422;BME280;19763;55.798;37.782;2022-10-15T10:07:00;100503.63;;;10.97;55.85
33422;BME280;19763;55.798;37.782;2022-10-15T10:12:21;100506.31;;;10.87;55.04
33422;BME280;19763;55.798;37.782;2022-10-15T10:14:59;100503.72;;;10.87;55.13
33422;BME280;19763;55.798;37.782;2022-10-15T10:17:27;100480.56;;;10.72;55.60
33422;BME280;19763;55.798;37.782;2022-10-15T10:25:31;100458.88;;;10.81;55.44
33422;BME280;19763;55.798;37.782;2022-10-15T10:30:52;100489.91;;;10.85;54.47
33422;BME280;19763;55.798;37.782;2022-10-15T10:35:59;100506.19;;;11.00;55.18
33422;BME280;19763;55.798;37.782;2022-10-15T10:38:32;100503.66;;;10.94;54.98
33422;BME280;19763;55.798;37.782;2022-10-15T10:41:02;100494.88;;;11.10;55.33
33422;BME280;19763;55.798;37.782;2022-10-15T10:43:33;100495.72;;;11.11;55.00
33422;BME280;19763;55.798;37.782;2022-10-15T10:46:17;100500.81;;;11.18;55.11
33422;BME280;19763;55.798;37.782;2022-10-15T10:48:46;100499.97;;;11.18;54.90
33422;BME280;19763;55.798;37.782;2022-10-15T10:51:14;100476.66;;;11.16;55.66
33422;BME280;19763;55.798;37.782;2022-10-15T10:54:10;100497.34;;;11.19;54.65
33422;BME280;19763;55.798;37.782;2022-10-15T10:56:43;100492.09;;;11.24;55.45
33422;BME280;19763;55.798;37.782;2022-10-15T11:01:56;100490.34;;;11.28;55.55
33422;BME280;19763;55.798;37.782;2022-10-15T11:15:27;100494.53;;;11.39;55.45
33422;BME280;19763;55.798;37.782;2022-10-15T11:23:57;100492.94;;;11.28;55.81
33422;BME280;19763;55.798;37.782;2022-10-15T11:26:55;100496.38;;;11.28;56.71
33422;BME280;19763;55.798;37.782;2022-10-15T11:40:13;100470.69;;;11.07;56.62
33422;BME280;19763;55.798;37.782;2022-10-15T11:49:35;100491.91;;;11.43;56.95
33422;BME280;19763;55.798;37.782;2022-10-15T11:54:35;100476.53;;;11.29;56.40
33422;BME280;19763;55.798;37.782;2022-10-15T11:57:03;100489.38;;;11.38;56.51
33422;BME280;19763;55.798;37.782;2022-10-15T11:59:52;100479.06;;;11.32;56.69
33422;BME280;19763;55.798;37.782;2022-10-15T12:02:37;100486.78;;;11.36;56.25
33422;BME280;19763;55.798;37.782;2022-10-15T12:05:11;100476.38;;;11.39;56.64
33422;BME280;19763;55.798;37.782;2022-10-15T12:07:43;100470.50;;;11.25;57.21
33422;BME280;19763;55.798;37.782;2022-10-15T12:12:48;100477.25;;;11.38;56.48
33422;BME280;19763;55.798;37.782;2022-10-15T12:17:52;100471.97;;;11.46;56.51
33422;BME280;19763;55.798;37.782;2022-10-15T12:20:21;100473.72;;;11.47;56.69
33422;BME280;19763;55.798;37.782;2022-10-15T12:28:18;100461.84;;;11.28;54.99
33422;BME280;19763;55.798;37.782;2022-10-15T12:31:03;100468.47;;;11.52;55.17
33422;BME280;19763;55.798;37.782;2022-10-15T12:33:31;100470.09;;;11.59;55.20
33422;BME280;19763;55.798;37.782;2022-10-15T12:36:04;100464.88;;;11.61;54.81
33422;BME280;19763;55.798;37.782;2022-10-15T12:38:36;100453.56;;;11.66;55.00
33422;BME280;19763;55.798;37.782;2022-10-15T12:41:08;100472.44;;;11.78;54.27
33422;BME280;19763;55.798;37.782;2022-10-15T12:43:42;100473.19;;;11.86;54.48
33422;BME280;19763;55.798;37.782;2022-10-15T12:46:10;100469.69;;;11.88;55.41
33422;BME280;19763;55.798;37.782;2022-10-15T12:48:43;100473.97;;;11.91;54.31
33422;BME280;19763;55.798;37.782;2022-10-15T12:53:47;100470.50;;;11.95;53.54
33422;BME280;19763;55.798;37.782;2022-10-15T12:58:54;100455.28;;;11.67;53.15
33422;BME280;19763;55.798;37.782;2022-10-15T13:08:51;100475.34;;;11.54;54.47
33422;BME280;19763;55.798;37.782;2022-10-15T13:11:27;100464.94;;;11.57;54.91
33422;BME280;19763;55.798;37.782;2022-10-15T13:14:01;100464.03;;;11.57;55.05
33422;BME280;19763;55.798;37.782;2022-10-15T13:16:28;100476.97;;;11.62;55.09
33422;BME280;19763;55.798;37.782;2022-10-15T13:18:54;100476.06;;;11.66;55.08
33422;BME280;19763;55.798;37.782;2022-10-15T13:21:23;100477.72;;;11.71;55.26
33422;BME280;19763;55.798;37.782;2022-10-15T13:24:10;100455.50;;;11.50;55.28
33422;BME280;19763;55.798;37.782;2022-10-15T13:26:36;100474.38;;;11.62;55.61
33422;BME280;19763;55.798;37.782;2022-10-15T13:29:01;100467.44;;;11.62;56.00
33422;BME280;19763;55.798;37.782;2022-10-15T13:31:29;100459.75;;;11.57;55.04
33422;BME280;19763;55.798;37.782;2022-10-15T13:36:51;100471.78;;;11.62;55.79
33422;BME280;19763;55.798;37.782;2022-10-15T13:39:30;100451.06;;;11.58;55.05
33422;BME280;19763;55.798;37.782;2022-10-15T13:44:38;100467.59;;;11.50;54.92
33422;BME280;19763;55.798;37.782;2022-10-15T13:47:23;100460.06;;;11.30;55.40
33422;BME280;19763;55.798;37.782;2022-10-15T13:49:50;100471.19;;;11.39;55.56
33422;BME280;19763;55.798;37.782;2022-10-15T13:52:16;100477.44;;;11.25;55.41
33422;BME280;19763;55.798;37.782;2022-10-15T13:54:44;100476.53;;;11.29;55.09
33422;BME280;19763;55.798;37.782;2022-10-15T13:57:14;100475.72;;;11.22;55.91
33422;BME280;19763;55.798;37.782;2022-10-15T13:59:44;100461.13;;;11.15;55.90
33422;BME280;19763;55.798;37.782;2022-10-15T14:02:11;100482.56;;;11.28;55.97
33422;BME280;19763;55.798;37.782;2022-10-15T14:04:36;100481.69;;;11.27;56.36
33422;BME280;19763;55.798;37.782;2022-10-15T14:07:17;100487.75;;;11.28;55.79
33422;BME280;19763;55.798;37.782;2022-10-15T14:09:45;100491.22;;;11.27;56.19
33422;BME280;19763;55.798;37.782;2022-10-15T14:12:12;100493.03;;;11.18;56.87
33422;BME280;19763;55.798;37.782;2022-10-15T14:14:45;100466.41;;;11.04;56.87
33422;BME280;19763;55.798;37.782;2022-10-15T14:17:22;100475.03;;;11.06;56.85
33422;BME280;19763;55.798;37.782;2022-10-15T14:19:52;100481.16;;;11.00;57.06
33422;BME280;19763;55.798;37.782;2022-10-15T14:22:20;100478.63;;;10.93;56.79
33422;BME280;19763;55.798;37.782;2022-10-15T14:24:50;100484.53;;;11.04;57.59
33422;BME280;19763;55.798;37.782;2022-10-15T14:27:20;100481.16;;;11.00;57.30
33422;BME280;19763;55.798;37.782;2022-10-15T14:29:53;100502.69;;;11.04;57.45
33422;BME280;19763;55.798;37.782;2022-10-15T14:32:23;100498.50;;;10.91;57.82
33422;BME280;19763;55.798;37.782;2022-10-15T14:34:51;100521.75;;;10.98;58.21
33422;BME280;19763;55.798;37.782;2022-10-15T14:42:37;100506.34;;;10.83;58.13
33422;BME280;19763;55.798;37.782;2022-10-15T14:45:26;100507.16;;;10.90;58.64
33422;BME280;19763;55.798;37.782;2022-10-15T14:47:54;100509.81;;;10.83;58.81
33422;BME280;19763;55.798;37.782;2022-10-15T14:50:26;100494.34;;;10.73;58.88
33422;BME280;19763;55.798;37.782;2022-10-15T14:52:53;100521.97;;;10.77;58.62
33422;BME280;19763;55.798;37.782;2022-10-15T14:57:48;100516.81;;;10.72;59.11
33422;BME280;19763;55.798;37.782;2022-10-15T15:00:28;100529.75;;;10.75;59.11
33422;BME280;19763;55.798;37.782;2022-10-15T15:02:55;100525.47;;;10.71;59.44
33422;BME280;19763;55.798;37.782;2022-10-15T15:05:25;100514.31;;;10.61;59.21
33422;BME280;19763;55.798;37.782;2022-10-15T15:07:51;100530.72;;;10.60;58.94
33422;BME280;19763;55.798;37.782;2022-10-15T15:10:18;100524.69;;;10.60;59.28
33422;BME280;19763;55.798;37.782;2022-10-15T15:12:55;100509.22;;;10.47;59.94
33422;BME280;19763;55.798;37.782;2022-10-15T15:15:23;100529.09;;;10.48;59.87